Time;durP1;ratioP1;P1;durP2;ratioP2;P2;SDS_P1;SDS_P2;PMS_P1;PMS_P2;Temp;Humidity;BMP_temperature;BMP_pressure;BME280_temperature;BME280_humidity;BME280_pressure;Samples;Min_cycle;Max_cycle;Signal;HPM_P1;HPM_P2
2022/04/30 00:02:15;;;;;;;17.73;9.43;;;5.40;99.90;;;;;;5041647;28;20403;-70
2022/04/30 00:04:47;;;;;;;21.40;10.55;;;5.40;99.90;;;;;;5036930;28;20475;-70
2022/04/30 00:07:16;;;;;;;16.63;10.00;;;5.40;99.90;;;;;;5036984;28;20179;-70
2022/04/30 00:09:43;;;;;;;15.05;9.52;;;5.40;99.90;;;;;;5036981;28;20183;-70
2022/04/30 00:12:10;;;;;;;16.40;9.95;;;5.40;99.90;;;;;;5036739;28;20053;-70
2022/04/30 00:14:37;;;;;;;16.35;9.38;;;5.40;99.90;;;;;;5036851;28;20048;-69
2022/04/30 00:17:03;;;;;;;15.48;9.55;;;5.40;99.90;;;;;;5036794;28;20060;-69
2022/04/30 00:19:29;;;;;;;22.02;10.80;;;5.50;99.90;;;;;;5037209;28;20458;-70
2022/04/30 00:21:56;;;;;;;15.60;9.60;;;5.50;99.90;;;;;;5056234;28;20119;-71
2022/04/30 00:24:23;;;;;;;14.90;9.10;;;5.60;99.90;;;;;;5056669;28;20041;-71
2022/04/30 00:26:48;;;;;;;14.15;10.00;;;5.50;99.90;;;;;;5039132;28;20118;-70
2022/04/30 00:29:14;;;;;;;16.13;10.20;;;5.60;99.90;;;;;;5039062;28;20056;-70
2022/04/30 00:31:40;;;;;;;17.63;9.85;;;5.40;99.90;;;;;;5056416;28;20037;-69
2022/04/30 00:34:06;;;;;;;15.80;10.13;;;5.50;99.90;;;;;;5056196;28;20056;-70
2022/04/30 00:36:31;;;;;;;15.27;10.60;;;5.50;99.90;;;;;;5055896;28;20350;-70
2022/04/30 00:38:57;;;;;;;14.32;10.30;;;5.50;99.90;;;;;;5056213;28;20080;-70
2022/04/30 00:41:23;;;;;;;16.45;9.57;;;5.50;99.90;;;;;;5056253;28;20124;-70
2022/04/30 00:43:54;;;;;;;19.45;10.02;;;5.50;99.90;;;;;;5038767;28;20068;-69
2022/04/30 00:46:22;;;;;;;16.27;10.25;;;5.60;99.90;;;;;;5055835;28;20094;-70
2022/04/30 00:48:48;;;;;;;19.05;10.45;;;5.60;99.90;;;;;;5022348;28;20046;-70
2022/04/30 00:51:19;;;;;;;16.50;10.63;;;5.70;99.90;;;;;;5038396;28;20056;-71
2022/04/30 00:53:47;;;;;;;15.18;9.77;;;5.70;99.90;;;;;;5055999;28;20086;-70
2022/04/30 00:56:15;;;;;;;17.90;10.10;;;5.60;99.90;;;;;;5055918;28;20461;-71
2022/04/30 00:58:48;;;;;;;17.63;10.20;;;5.70;99.90;;;;;;5056145;28;20044;-70
2022/04/30 01:01:14;;;;;;;19.38;10.80;;;5.90;99.90;;;;;;5056180;28;20049;-70
2022/04/30 01:03:40;;;;;;;16.15;10.40;;;5.60;99.90;;;;;;5056003;28;20433;-70
2022/04/30 01:06:07;;;;;;;17.02;10.30;;;5.60;99.90;;;;;;5055273;28;20488;-69
2022/04/30 01:08:33;;;;;;;18.98;10.32;;;5.60;99.90;;;;;;5056151;28;20182;-70
2022/04/30 01:11:01;;;;;;;19.17;10.63;;;5.60;99.90;;;;;;5056113;28;20120;-70
2022/04/30 01:13:28;;;;;;;17.50;11.10;;;5.50;99.90;;;;;;5055332;28;20040;-70
2022/04/30 01:15:58;;;;;;;16.23;9.90;;;5.50;99.90;;;;;;5055974;28;20041;-70
2022/04/30 01:18:27;;;;;;;16.85;11.18;;;5.50;99.90;;;;;;5055799;28;20052;-70
2022/04/30 01:20:58;;;;;;;19.10;10.68;;;5.40;99.90;;;;;;5055106;28;20045;-71
2022/04/30 01:23:26;;;;;;;16.83;10.43;;;5.40;99.90;;;;;;5055616;28;20057;-70
2022/04/30 01:25:53;;;;;;;18.50;11.13;;;5.40;99.90;;;;;;5055722;28;20338;-71
2022/04/30 01:28:19;;;;;;;17.92;10.73;;;5.30;99.90;;;;;;5055372;28;20059;-70
2022/04/30 01:30:45;;;;;;;22.40;11.50;;;5.30;99.90;;;;;;5055287;28;20078;-70
2022/04/30 01:38:40;;;;;;;17.10;10.65;;;5.20;99.90;;;;;;5055116;28;20063;-72
2022/04/30 01:41:05;;;;;;;17.38;10.35;;;5.20;99.90;;;;;;5055629;28;20053;-70
2022/04/30 01:43:33;;;;;;;15.13;10.60;;;5.20;99.90;;;;;;5055434;28;20049;-71
2022/04/30 01:46:00;;;;;;;16.27;10.80;;;5.20;99.90;;;;;;5055073;28;20095;-70
2022/04/30 01:48:25;;;;;;;16.35;10.48;;;5.20;99.90;;;;;;5055215;28;20143;-70
2022/04/30 01:50:52;;;;;;;16.63;10.00;;;5.20;99.90;;;;;;5054637;28;20041;-69
2022/04/30 01:53:18;;;;;;;20.15;11.65;;;5.20;99.90;;;;;;5054371;28;20064;-70
2022/04/30 01:55:44;;;;;;;19.10;11.48;;;5.20;99.90;;;;;;5054900;28;20480;-70
2022/04/30 01:58:09;;;;;;;18.38;10.43;;;5.20;99.90;;;;;;5054862;28;20326;-70
2022/04/30 02:00:35;;;;;;;18.00;11.15;;;5.20;99.90;;;;;;5054797;28;20070;-69
2022/04/30 02:03:06;;;;;;;19.60;11.50;;;5.20;99.90;;;;;;5055036;28;20049;-68
2022/04/30 02:05:32;;;;;;;17.80;11.13;;;5.20;99.90;;;;;;5054969;28;20044;-70
2022/04/30 02:08:00;;;;;;;17.63;10.13;;;5.30;99.90;;;;;;5054743;28;20051;-70
2022/04/30 02:10:26;;;;;;;17.85;10.45;;;5.40;99.90;;;;;;5054998;28;20364;-69
2022/04/30 02:12:53;;;;;;;16.98;10.60;;;5.30;99.90;;;;;;5037193;28;20044;-70
2022/04/30 02:15:20;;;;;;;17.25;10.30;;;5.30;99.90;;;;;;5054697;28;20059;-70
2022/04/30 02:17:49;;;;;;;15.48;10.50;;;5.30;99.90;;;;;;5037198;28;20053;-71
2022/04/30 02:20:19;;;;;;;17.83;10.15;;;5.30;99.90;;;;;;5054532;28;20476;-70
2022/04/30 02:22:45;;;;;;;14.30;9.60;;;5.30;99.90;;;;;;5054621;28;20056;-70
2022/04/30 02:25:14;;;;;;;15.88;9.90;;;5.30;99.90;;;;;;5054785;28;20441;-70
2022/04/30 02:27:42;;;;;;;14.07;9.15;;;5.30;99.90;;;;;;5054648;28;20041;-70
2022/04/30 02:30:14;;;;;;;13.73;9.57;;;5.30;99.90;;;;;;5054860;28;20037;-70
2022/04/30 02:32:51;;;;;;;17.77;9.43;;;5.20;99.90;;;;;;5054721;28;20087;-71
2022/04/30 02:35:28;;;;;;;17.67;9.48;;;5.20;99.90;;;;;;5055166;28;20369;-69
2022/04/30 02:37:56;;;;;;;12.88;9.00;;;5.20;99.90;;;;;;5054606;28;20136;-70
2022/04/30 02:40:24;;;;;;;16.63;9.48;;;5.20;99.90;;;;;;5054750;28;20045;-70
2022/04/30 02:42:51;;;;;;;13.20;8.93;;;5.30;99.90;;;;;;5054515;28;20041;-69
2022/04/30 02:45:18;;;;;;;13.63;9.10;;;5.20;99.90;;;;;;5054489;28;20420;-71
2022/04/30 02:47:52;;;;;;;16.63;9.48;;;5.20;99.90;;;;;;5054206;28;20048;-71
2022/04/30 02:50:19;;;;;;;20.95;9.52;;;5.20;99.90;;;;;;5054285;28;20084;-70
2022/04/30 02:52:45;;;;;;;13.73;9.15;;;5.20;99.90;;;;;;5054341;28;20424;-70
2022/04/30 02:55:12;;;;;;;15.73;9.05;;;5.20;99.90;;;;;;5054378;28;20128;-70
2022/04/30 03:00:45;;;;;;;17.42;8.70;;;5.20;99.90;;;;;;5054856;28;20417;-70
2022/04/30 03:03:14;;;;;;;14.60;8.32;;;5.30;99.90;;;;;;5036719;28;20469;-70
2022/04/30 03:05:43;;;;;;;17.25;10.15;;;5.30;99.90;;;;;;5036813;28;20041;-70
2022/04/30 03:08:13;;;;;;;16.35;9.02;;;5.30;99.90;;;;;;5054317;28;20060;-72
2022/04/30 03:10:44;;;;;;;16.13;9.02;;;5.20;99.90;;;;;;5057367;28;20036;-71
2022/04/30 03:13:10;;;;;;;12.73;8.95;;;5.20;99.90;;;;;;5057925;28;20057;-71
2022/04/30 03:15:39;;;;;;;13.85;8.93;;;5.10;99.90;;;;;;5057930;28;20456;-70
2022/04/30 03:23:31;;;;;;;15.88;8.55;;;5.10;99.90;;;;;;5057427;28;20460;-69
2022/04/30 03:25:57;;;;;;;16.83;8.68;;;5.10;99.90;;;;;;5057751;28;20041;-70
2022/04/30 03:28:23;;;;;;;13.93;8.25;;;5.10;99.90;;;;;;5057705;28;20084;-70
2022/04/30 03:30:49;;;;;;;16.10;8.90;;;5.10;99.90;;;;;;5057935;28;20421;-69
2022/04/30 03:33:14;;;;;;;13.80;8.95;;;5.10;99.90;;;;;;5057601;28;20091;-70
2022/04/30 03:35:40;;;;;;;13.10;9.23;;;5.00;99.90;;;;;;5057421;28;20428;-70
2022/04/30 03:38:07;;;;;;;16.42;8.75;;;5.00;99.90;;;;;;5056900;28;20040;-70
2022/04/30 03:40:34;;;;;;;13.55;8.57;;;4.90;99.90;;;;;;5057833;28;20369;-70
2022/04/30 03:43:03;;;;;;;15.25;8.20;;;5.00;99.90;;;;;;5057746;28;20415;-70
2022/04/30 03:45:29;;;;;;;15.50;8.90;;;5.00;99.90;;;;;;5057643;28;20052;-70
2022/04/30 03:47:54;;;;;;;15.70;8.93;;;5.00;99.90;;;;;;5055857;28;20067;-70
2022/04/30 03:50:20;;;;;;;15.60;8.75;;;5.00;99.90;;;;;;5055020;28;20103;-70
2022/04/30 03:52:46;;;;;;;19.88;8.98;;;5.00;99.90;;;;;;5055339;28;20064;-70
2022/04/30 03:55:14;;;;;;;14.80;9.13;;;5.00;99.90;;;;;;5057192;28;20049;-70
2022/04/30 03:57:40;;;;;;;15.57;9.88;;;5.00;99.90;;;;;;5039844;28;20385;-69
2022/04/30 04:00:06;;;;;;;12.50;9.07;;;5.00;99.90;;;;;;5013547;28;20061;-69
2022/04/30 04:02:32;;;;;;;13.80;9.13;;;4.90;99.90;;;;;;5019415;28;20049;-69
2022/04/30 04:04:58;;;;;;;13.18;8.65;;;5.00;99.90;;;;;;5036965;28;20180;-70
2022/04/30 04:07:24;;;;;;;16.42;8.63;;;4.90;99.90;;;;;;5036871;28;20084;-70
2022/04/30 04:09:50;;;;;;;14.50;8.93;;;5.00;99.90;;;;;;5036608;28;20046;-70
2022/04/30 04:12:15;;;;;;;13.25;9.15;;;5.00;99.90;;;;;;4985894;28;20093;-70
2022/04/30 04:17:37;;;;;;;11.80;8.98;;;5.00;99.90;;;;;;5036271;28;20065;-69
2022/04/30 04:20:11;;;;;;;18.95;9.13;;;5.00;99.90;;;;;;5011873;28;20059;-69
2022/04/30 04:22:36;;;;;;;;;;;5.00;99.90;;;;;;5037426;28;20450;-70
2022/04/30 04:27:54;;;;;;;14.07;9.25;;;5.00;99.90;;;;;;5019800;28;20148;-70
2022/04/30 04:30:23;;;;;;;14.60;9.30;;;5.00;99.90;;;;;;5019082;28;20045;-69
2022/04/30 04:32:49;;;;;;;18.83;9.10;;;5.10;99.90;;;;;;5033395;28;20440;-70
2022/04/30 04:35:16;;;;;;;15.50;9.52;;;5.20;99.90;;;;;;5036439;28;20041;-69
2022/04/30 04:37:42;;;;;;;18.85;9.70;;;5.20;99.90;;;;;;5036618;28;20056;-69
2022/04/30 04:40:09;;;;;;;14.85;9.38;;;5.30;99.90;;;;;;5036016;28;20428;-70
2022/04/30 04:42:35;;;;;;;18.15;9.50;;;5.30;99.90;;;;;;5036166;28;20041;-70
2022/04/30 04:45:02;;;;;;;15.23;10.02;;;5.40;99.90;;;;;;5036148;28;20107;-69
2022/04/30 04:47:28;;;;;;;14.93;9.10;;;5.50;99.90;;;;;;5036165;28;20365;-70
2022/04/30 04:49:54;;;;;;;16.00;9.98;;;5.60;99.90;;;;;;5036049;28;20045;-70
2022/04/30 04:52:22;;;;;;;13.73;9.45;;;5.60;99.90;;;;;;5036314;28;20055;-70
2022/04/30 04:54:48;;;;;;;16.40;9.45;;;5.70;99.90;;;;;;5018292;28;20119;-69
2022/04/30 04:57:14;;;;;;;16.58;9.27;;;5.90;99.90;;;;;;5036049;28;20049;-71
2022/04/30 04:59:40;;;;;;;17.73;9.63;;;5.90;99.90;;;;;;5041317;28;20061;-71
2022/04/30 05:02:05;;;;;;;19.67;9.75;;;6.00;99.90;;;;;;5036599;28;20053;-71
2022/04/30 05:04:32;;;;;;;14.40;9.75;;;6.10;99.90;;;;;;4999952;28;20080;-72
2022/04/30 05:06:59;;;;;;;17.77;10.02;;;6.10;99.90;;;;;;5035276;28;20137;-71
2022/04/30 05:09:25;;;;;;;13.05;9.10;;;6.20;99.90;;;;;;5033912;28;20057;-72
2022/04/30 05:11:52;;;;;;;18.50;9.82;;;6.30;99.90;;;;;;5039064;28;20045;-72
2022/04/30 05:14:18;;;;;;;15.48;9.68;;;6.30;99.90;;;;;;5054942;28;20096;-71
2022/04/30 05:16:43;;;;;;;15.30;9.90;;;6.40;99.90;;;;;;5054634;28;20124;-71
2022/04/30 05:19:09;;;;;;;13.13;9.30;;;6.60;99.90;;;;;;5054777;28;20132;-71
2022/04/30 05:21:35;;;;;;;14.88;9.50;;;6.50;99.90;;;;;;5054991;28;20135;-70
2022/04/30 05:24:00;;;;;;;14.15;9.15;;;6.70;99.90;;;;;;5054952;28;20059;-69
2022/04/30 05:26:26;;;;;;;18.35;8.80;;;6.70;99.90;;;;;;5053134;28;20041;-70
2022/04/30 05:28:51;;;;;;;17.42;9.27;;;6.80;99.90;;;;;;5054828;28;20045;-71
2022/04/30 05:31:17;;;;;;;14.18;9.27;;;6.80;99.90;;;;;;5039067;28;20033;-72
2022/04/30 05:33:43;;;;;;;13.73;9.15;;;6.90;99.90;;;;;;5040339;28;20045;-73
2022/04/30 05:36:08;;;;;;;18.67;8.85;;;7.00;99.90;;;;;;5050657;28;20037;-71
2022/04/30 05:38:34;;;;;;;13.93;9.38;;;7.20;99.90;;;;;;5029820;28;20053;-71
2022/04/30 05:41:01;;;;;;;13.65;9.30;;;7.20;99.90;;;;;;5034872;28;20127;-71
2022/04/30 05:43:27;;;;;;;17.35;10.07;;;7.60;99.90;;;;;;5035173;28;20045;-72
2022/04/30 05:45:52;;;;;;;13.48;8.98;;;7.50;99.90;;;;;;5035618;28;20084;-72
2022/04/30 05:48:18;;;;;;;15.68;8.30;;;7.60;99.90;;;;;;5035231;28;20045;-72
2022/04/30 05:50:44;;;;;;;14.60;9.40;;;7.70;99.90;;;;;;5035084;28;20052;-71
2022/04/30 05:53:10;;;;;;;16.00;8.75;;;7.70;99.90;;;;;;5000161;28;20064;-71
2022/04/30 05:55:36;;;;;;;13.05;8.75;;;7.80;99.90;;;;;;5035525;28;20049;-71
2022/04/30 05:58:02;;;;;;;15.50;8.73;;;7.70;99.90;;;;;;5034509;28;20470;-71
2022/04/30 06:00:27;;;;;;;13.00;8.90;;;7.80;99.90;;;;;;5035142;28;20049;-71
2022/04/30 06:02:54;;;;;;;12.60;8.48;;;7.80;99.90;;;;;;5034937;28;20344;-73
2022/04/30 06:05:21;;;;;;;12.48;8.75;;;7.90;99.90;;;;;;5035456;28;20057;-71
2022/04/30 06:07:46;;;;;;;12.48;8.30;;;8.00;99.90;;;;;;5017282;28;20050;-72
2022/04/30 06:10:12;;;;;;;13.27;8.40;;;8.10;99.90;;;;;;5025440;28;20109;-73
2022/04/30 06:12:38;;;;;;;15.02;8.65;;;8.10;99.90;;;;;;5054472;28;20396;-72
2022/04/30 06:15:04;;;;;;;15.30;9.18;;;8.30;99.90;;;;;;5054620;28;20055;-71
2022/04/30 06:17:30;;;;;;;15.55;9.43;;;8.20;99.90;;;;;;5054871;28;20041;-72
2022/04/30 06:19:55;;;;;;;12.43;8.52;;;8.30;99.90;;;;;;5054933;28;20124;-71
2022/04/30 06:22:21;;;;;;;12.13;8.10;;;8.30;99.90;;;;;;5054515;28;20040;-72
2022/04/30 06:24:47;;;;;;;12.88;7.97;;;8.40;99.90;;;;;;5054495;28;20075;-72
2022/04/30 06:27:12;;;;;;;15.60;8.35;;;8.50;99.90;;;;;;5054543;28;20438;-72
2022/04/30 06:29:39;;;;;;;17.55;9.32;;;8.60;99.90;;;;;;5054811;28;20052;-73
2022/04/30 06:32:06;;;;;;;10.57;8.10;;;8.60;99.90;;;;;;5042723;28;20079;-72
2022/04/30 06:34:31;;;;;;;14.27;8.63;;;8.60;99.90;;;;;;5055558;28;20040;-74
2022/04/30 06:36:57;;;;;;;12.02;8.50;;;8.60;99.90;;;;;;5027627;28;20041;-72
2022/04/30 06:39:22;;;;;;;14.90;8.52;;;8.60;99.90;;;;;;5033354;28;20084;-72
2022/04/30 06:41:48;;;;;;;13.77;8.80;;;8.70;99.90;;;;;;5038165;28;20045;-72
2022/04/30 06:44:14;;;;;;;12.18;8.35;;;8.70;99.90;;;;;;5042537;28;20076;-72
2022/04/30 06:46:39;;;;;;;11.30;8.55;;;8.80;99.90;;;;;;5048220;28;20050;-72
2022/04/30 06:49:05;;;;;;;10.65;9.30;;;8.80;99.90;;;;;;5038628;28;20334;-73
2022/04/30 06:51:30;;;;;;;13.65;8.77;;;8.90;99.90;;;;;;5039922;28;20095;-72
2022/04/30 06:59:24;;;;;;;12.68;8.30;;;9.20;99.90;;;;;;5038202;28;20053;-72
2022/04/30 07:02:00;;;;;;;11.25;7.68;;;9.30;99.90;;;;;;5038771;28;20045;-72
2022/04/30 07:04:26;;;;;;;12.85;8.48;;;9.40;99.90;;;;;;5023707;28;20124;-73
2022/04/30 07:06:52;;;;;;;12.60;7.97;;;9.40;99.90;;;;;;5053238;28;20029;-73
2022/04/30 07:09:18;;;;;;;13.52;8.68;;;9.50;99.90;;;;;;5039171;28;20449;-73
2022/04/30 07:11:44;;;;;;;11.80;7.38;;;9.60;99.90;;;;;;5029550;28;20496;-73
2022/04/30 07:14:10;;;;;;;10.75;8.07;;;9.60;99.90;;;;;;5047891;28;20108;-73
2022/04/30 07:16:36;;;;;;;13.07;7.97;;;9.70;99.90;;;;;;5046163;28;20473;-73
2022/04/30 07:19:03;;;;;;;12.82;7.07;;;9.80;99.90;;;;;;5048261;28;20040;-74
2022/04/30 07:21:31;;;;;;;12.40;7.20;;;9.90;99.90;;;;;;5046592;28;20045;-73
2022/04/30 07:23:57;;;;;;;17.30;7.63;;;10.00;99.90;;;;;;5046870;28;20068;-72
2022/04/30 07:26:23;;;;;;;14.30;7.75;;;10.30;99.90;;;;;;5048077;28;20041;-73
2022/04/30 07:28:49;;;;;;;13.00;7.63;;;10.40;99.90;;;;;;5046570;28;20049;-73
2022/04/30 07:31:14;;;;;;;14.07;7.53;;;10.50;99.90;;;;;;5046639;28;20091;-73
2022/04/30 07:33:41;;;;;;;10.90;6.70;;;10.60;99.90;;;;;;5051084;28;20045;-73
2022/04/30 07:36:07;;;;;;;15.30;7.40;;;10.80;99.90;;;;;;5028523;28;20045;-73
2022/04/30 07:38:32;;;;;;;16.10;7.18;;;11.00;99.90;;;;;;5047006;28;20029;-73
2022/04/30 07:40:58;;;;;;;12.45;7.47;;;11.20;99.90;;;;;;5047469;28;20484;-73
2022/04/30 07:43:23;;;;;;;9.55;6.30;;;11.30;99.90;;;;;;5028067;28;20046;-72
2022/04/30 07:45:49;;;;;;;15.90;7.32;;;11.30;99.90;;;;;;5027315;28;20347;-73
2022/04/30 07:48:15;;;;;;;13.82;7.13;;;11.40;99.90;;;;;;5045026;28;20366;-74
2022/04/30 07:50:44;;;;;;;10.90;6.55;;;11.50;99.90;;;;;;5039510;28;20064;-73
2022/04/30 07:53:11;;;;;;;10.43;6.40;;;11.50;99.90;;;;;;5045670;28;20056;-70
2022/04/30 07:55:36;;;;;;;11.90;5.80;;;11.70;99.90;;;;;;5043149;28;20477;-73
2022/04/30 07:58:02;;;;;;;17.52;5.90;;;11.80;99.90;;;;;;5052627;28;20045;-71
2022/04/30 08:00:29;;;;;;;15.45;5.93;;;11.70;99.90;;;;;;5025142;28;20065;-73
2022/04/30 08:02:56;;;;;;;10.73;5.65;;;11.70;99.90;;;;;;5017534;28;20401;-73
2022/04/30 08:05:22;;;;;;;13.13;6.55;;;11.80;99.90;;;;;;4995866;28;20129;-73
2022/04/30 08:07:48;;;;;;;11.43;5.45;;;11.80;99.90;;;;;;5019601;28;20064;-73
2022/04/30 08:10:14;;;;;;;9.50;5.47;;;11.80;99.90;;;;;;5028723;28;20132;-73
2022/04/30 08:12:40;;;;;;;10.63;5.72;;;11.90;99.90;;;;;;5020094;28;20053;-73
2022/04/30 08:15:06;;;;;;;11.13;6.07;;;11.90;99.90;;;;;;5030709;28;20041;-73
2022/04/30 08:17:31;;;;;;;11.35;5.82;;;11.90;99.90;;;;;;5016843;28;20408;-73
2022/04/30 08:19:57;;;;;;;11.00;5.75;;;11.90;99.90;;;;;;5016724;28;20046;-73
2022/04/30 08:22:23;;;;;;;12.90;5.90;;;11.90;99.90;;;;;;5016826;28;20053;-74
2022/04/30 08:24:48;;;;;;;9.93;5.72;;;11.90;99.90;;;;;;5016778;28;20107;-73
2022/04/30 08:27:14;;;;;;;9.98;6.07;;;12.10;99.90;;;;;;5016713;28;20064;-73
2022/04/30 08:29:39;;;;;;;10.40;5.40;;;12.10;99.90;;;;;;5016666;28;20451;-73
2022/04/30 08:32:06;;;;;;;11.35;6.20;;;12.10;99.90;;;;;;5017242;28;20048;-72
2022/04/30 08:34:32;;;;;;;7.90;5.75;;;12.10;99.90;;;;;;5036471;28;20046;-73
2022/04/30 08:36:57;;;;;;;10.73;5.55;;;12.20;99.90;;;;;;5036628;28;20096;-73
2022/04/30 08:39:23;;;;;;;13.13;6.13;;;12.10;99.90;;;;;;5036504;28;20049;-73
2022/04/30 08:41:49;;;;;;;9.50;5.63;;;12.20;99.90;;;;;;5036273;28;20049;-75
2022/04/30 08:44:15;;;;;;;10.25;5.55;;;12.30;99.90;;;;;;5018400;28;20120;-73
2022/04/30 08:46:43;;;;;;;9.80;5.22;;;12.40;99.90;;;;;;5036679;28;20377;-74
2022/04/30 08:49:10;;;;;;;9.43;4.90;;;12.50;99.90;;;;;;5036160;28;20119;-73
2022/04/30 08:51:36;;;;;;;10.65;5.57;;;12.70;99.90;;;;;;5035975;28;20041;-73
2022/04/30 08:54:02;;;;;;;12.93;5.60;;;13.00;99.90;;;;;;5036483;28;20121;-73
2022/04/30 08:56:28;;;;;;;10.23;5.18;;;13.30;99.90;;;;;;5036163;28;20081;-74
2022/04/30 08:59:03;;;;;;;9.80;4.93;;;13.50;99.90;;;;;;5018547;28;20088;-73
2022/04/30 09:01:29;;;;;;;9.15;4.82;;;13.80;99.90;;;;;;5036244;28;20115;-73
2022/04/30 09:03:56;;;;;;;9.88;4.43;;;13.90;99.90;;;;;;5034593;28;20037;-73
2022/04/30 09:06:22;;;;;;;8.77;4.47;;;14.00;99.90;;;;;;5024021;28;20038;-72
2022/04/30 09:08:52;;;;;;;11.05;4.47;;;14.00;99.90;;;;;;5013563;28;20064;-73
2022/04/30 09:11:26;;;;;;;6.10;4.43;;;13.80;99.90;;;;;;5025720;28;20033;-74
2022/04/30 09:13:52;;;;;;;8.48;4.72;;;13.80;99.90;;;;;;5027780;28;20530;-72
2022/04/30 09:16:22;;;;;;;7.65;4.63;;;13.80;99.90;;;;;;5031767;28;20152;-73
2022/04/30 09:18:52;;;;;;;9.88;5.05;;;13.80;99.90;;;;;;5034444;28;20117;-73
2022/04/30 09:21:18;;;;;;;10.05;4.97;;;13.90;99.90;;;;;;5016103;28;20061;-73
2022/04/30 09:23:44;;;;;;;7.25;4.35;;;14.30;99.90;;;;;;5025822;28;20107;-73
2022/04/30 09:26:11;;;;;;;9.00;5.03;;;14.50;99.90;;;;;;5015924;28;20046;-75
2022/04/30 09:28:39;;;;;;;10.13;4.53;;;14.50;99.90;;;;;;5015829;28;20053;-72
2022/04/30 09:31:08;;;;;;;9.90;4.85;;;14.60;99.90;;;;;;5015168;28;20049;-72
2022/04/30 09:33:36;;;;;;;9.15;4.70;;;14.60;99.90;;;;;;5015994;28;20500;-73
2022/04/30 09:38:53;;;;;;;9.75;4.68;;;14.40;99.90;;;;;;5035078;28;20055;-74
2022/04/30 09:41:24;;;;;;;7.72;4.80;;;14.30;99.90;;;;;;5035135;28;20049;-73
2022/04/30 09:44:06;;;;;;;9.25;4.32;;;14.40;99.90;;;;;;5035193;28;20053;-73
2022/04/30 09:46:37;;;;;;;6.65;3.95;;;14.60;99.90;;;;;;5035104;28;20149;-73
2022/04/30 09:54:41;;;;;;;6.65;4.07;;;14.80;99.90;;;;;;5035031;28;20053;-74
2022/04/30 09:57:09;;;;;;;7.25;4.00;;;14.70;99.90;;;;;;5034982;28;20060;-73
2022/04/30 09:59:36;;;;;;;10.60;4.28;;;14.40;99.90;;;;;;5039651;28;20076;-74
2022/04/30 10:02:06;;;;;;;8.68;4.38;;;14.00;99.90;;;;;;5054143;28;20045;-73
2022/04/30 10:04:33;;;;;;;7.43;4.22;;;13.90;99.90;;;;;;5037042;28;20373;-73
2022/04/30 10:07:00;;;;;;;8.40;3.80;;;13.50;99.90;;;;;;5051883;28;20373;-73
2022/04/30 10:09:39;;;;;;;7.65;4.20;;;13.80;99.90;;;;;;5037462;28;20063;-73
2022/04/30 10:12:11;;;;;;;11.10;4.45;;;13.80;99.90;;;;;;5020713;28;20102;-75
2022/04/30 10:15:00;;;;;;;7.65;4.47;;;13.80;99.90;;;;;;5054871;28;20127;-74
2022/04/30 10:17:29;;;;;;;8.80;4.55;;;13.50;99.90;;;;;;5036509;28;20081;-76
2022/04/30 10:20:11;;;;;;;11.32;5.15;;;13.20;99.90;;;;;;5060466;28;20461;-71
2022/04/30 10:22:48;;;;;;;9.40;4.50;;;13.20;99.90;;;;;;5041134;28;20064;-73
2022/04/30 10:25:13;;;;;;;7.60;4.30;;;13.00;99.90;;;;;;5040836;28;20568;-73
2022/04/30 10:27:44;;;;;;;7.18;4.38;;;13.00;99.90;;;;;;5041465;28;20144;-73
2022/04/30 10:30:24;;;;;;;9.18;5.03;;;13.00;99.90;;;;;;5054626;28;20101;-71
2022/04/30 10:33:00;;;;;;;9.88;5.20;;;13.10;99.90;;;;;;5048435;28;20098;-73
2022/04/30 10:35:38;;;;;;;8.27;5.13;;;13.00;99.90;;;;;;5048927;28;20052;-72
2022/04/30 10:38:18;;;;;;;12.18;5.28;;;12.90;99.90;;;;;;5032080;28;20396;-73
2022/04/30 10:40:47;;;;;;;8.98;4.90;;;13.10;99.90;;;;;;5048272;28;20140;-73
2022/04/30 10:43:31;;;;;;;9.25;5.38;;;13.00;99.90;;;;;;5028943;28;20041;-72
2022/04/30 10:45:56;;;;;;;8.50;4.82;;;12.90;99.90;;;;;;4990218;28;20108;-73
2022/04/30 10:48:22;;;;;;;7.03;4.38;;;12.90;99.90;;;;;;5041042;28;20042;-72
2022/04/30 10:50:56;;;;;;;7.10;4.28;;;12.70;99.90;;;;;;5023515;28;20056;-73
2022/04/30 10:53:27;;;;;;;6.20;4.30;;;12.80;99.90;;;;;;5040488;28;20426;-71
2022/04/30 10:55:53;;;;;;;6.45;4.07;;;12.80;99.90;;;;;;5040960;28;20045;-73
2022/04/30 10:58:25;;;;;;;8.95;5.22;;;12.80;99.90;;;;;;5041263;28;20046;-72
2022/04/30 11:00:51;;;;;;;5.90;3.95;;;12.90;99.90;;;;;;5041134;28;20049;-72
2022/04/30 11:03:18;;;;;;;8.77;4.30;;;12.80;99.90;;;;;;5043850;28;20056;-72
2022/04/30 11:05:48;;;;;;;7.68;4.97;;;12.90;99.90;;;;;;5035374;28;20048;-73
2022/04/30 11:08:14;;;;;;;12.10;6.10;;;13.00;99.90;;;;;;5034510;28;20037;-73
2022/04/30 11:10:50;;;;;;;8.95;4.78;;;13.10;99.90;;;;;;5029875;28;20056;-73
2022/04/30 11:13:16;;;;;;;7.78;4.82;;;13.20;99.90;;;;;;5038860;28;20183;-73
2022/04/30 11:15:42;;;;;;;7.93;4.75;;;13.20;99.90;;;;;;5023585;28;20500;-71
2022/04/30 11:18:07;;;;;;;9.75;5.03;;;13.20;99.90;;;;;;5040958;28;20369;-72
2022/04/30 11:20:33;;;;;;;8.98;4.78;;;13.10;99.90;;;;;;5040778;28;20168;-72
2022/04/30 11:23:02;;;;;;;7.85;4.97;;;13.10;99.90;;;;;;5029798;28;20072;-72
2022/04/30 11:25:38;;;;;;;9.88;4.70;;;13.00;99.90;;;;;;5031345;28;20107;-72
2022/04/30 11:28:09;;;;;;;7.13;4.93;;;13.00;99.90;;;;;;5031628;28;20041;-71
2022/04/30 11:30:36;;;;;;;12.90;5.30;;;12.90;99.90;;;;;;5017749;28;20056;-72
2022/04/30 11:33:02;;;;;;;10.90;5.53;;;12.80;99.90;;;;;;5035339;28;20069;-74
2022/04/30 11:35:28;;;;;;;9.50;4.45;;;12.80;99.90;;;;;;5037466;28;20107;-72
2022/04/30 11:37:54;;;;;;;9.50;4.75;;;13.00;99.90;;;;;;5037458;28;20037;-72
2022/04/30 11:40:22;;;;;;;10.20;4.88;;;13.00;99.90;;;;;;5037443;28;20448;-72
2022/04/30 11:42:59;;;;;;;7.13;4.40;;;13.30;99.90;;;;;;5037406;28;20045;-72
2022/04/30 11:45:26;;;;;;;7.75;5.47;;;13.30;99.90;;;;;;5037561;28;20388;-72
2022/04/30 11:47:51;;;;;;;6.25;4.43;;;13.00;99.90;;;;;;5037310;28;20044;-71
2022/04/30 11:50:17;;;;;;;12.00;4.80;;;12.90;99.90;;;;;;5037569;28;20041;-72
2022/04/30 11:52:44;;;;;;;9.82;5.00;;;12.90;99.90;;;;;;5037128;28;20077;-72
2022/04/30 11:55:10;;;;;;;6.85;4.53;;;12.90;99.90;;;;;;5037249;28;20107;-72
2022/04/30 11:57:42;;;;;;;7.88;4.72;;;12.80;99.90;;;;;;5037071;28;20052;-73
2022/04/30 12:00:09;;;;;;;9.73;5.13;;;12.90;99.90;;;;;;5043157;28;20067;-73
2022/04/30 12:02:37;;;;;;;9.32;4.95;;;13.00;99.90;;;;;;5056193;28;20049;-73
2022/04/30 12:05:04;;;;;;;7.95;4.30;;;13.00;99.90;;;;;;5057052;28;20049;-72
2022/04/30 12:07:38;;;;;;;6.20;4.53;;;13.10;99.90;;;;;;5054105;28;20072;-72
2022/04/30 12:10:14;;;;;;;8.35;4.53;;;13.20;99.90;;;;;;5056970;28;20126;-72
2022/04/30 12:12:40;;;;;;;8.02;4.30;;;13.20;99.90;;;;;;5056960;28;20100;-73
2022/04/30 12:15:19;;;;;;;8.88;4.68;;;13.30;99.90;;;;;;5056664;28;20049;-72
2022/04/30 12:17:45;;;;;;;10.43;4.82;;;13.40;99.90;;;;;;5056717;28;20041;-72
2022/04/30 12:25:46;;;;;;;8.82;4.60;;;13.10;99.90;;;;;;5056523;28;20087;-70
2022/04/30 12:28:12;;;;;;;7.95;4.25;;;13.20;99.90;;;;;;5056446;28;20045;-71
2022/04/30 12:30:52;;;;;;;8.88;4.75;;;13.50;99.90;;;;;;5056393;28;20037;-71
2022/04/30 12:33:17;;;;;;;7.25;4.50;;;13.60;99.90;;;;;;5036554;28;20049;-72
2022/04/30 12:35:44;;;;;;;8.15;5.05;;;13.70;99.90;;;;;;5018675;28;20053;-74
2022/04/30 12:38:14;;;;;;;10.00;4.60;;;13.70;99.90;;;;;;5036282;28;20124;-72
2022/04/30 12:40:46;;;;;;;6.88;4.82;;;13.90;99.90;;;;;;5036385;28;20106;-73
2022/04/30 12:43:12;;;;;;;7.37;4.97;;;13.90;99.90;;;;;;5036070;28;20110;-72
2022/04/30 12:45:41;;;;;;;7.55;4.80;;;14.00;99.90;;;;;;5036601;28;20037;-73
2022/04/30 12:48:09;;;;;;;8.57;5.18;;;14.00;99.90;;;;;;5018949;28;20374;-71
2022/04/30 12:50:36;;;;;;;8.00;5.25;;;14.00;99.90;;;;;;5036228;28;20041;-71
2022/04/30 12:53:02;;;;;;;7.05;4.72;;;14.20;99.90;;;;;;5035950;28;20045;-70
2022/04/30 12:55:29;;;;;;;8.63;5.18;;;14.20;99.90;;;;;;5035979;28;20450;-70
2022/04/30 12:57:55;;;;;;;8.77;4.90;;;14.20;99.90;;;;;;5036223;28;20057;-69
2022/04/30 13:00:21;;;;;;;12.27;5.03;;;14.20;99.90;;;;;;5036111;28;20052;-69
2022/04/30 13:02:46;;;;;;;8.10;4.47;;;14.10;99.90;;;;;;5052661;28;20370;-71
2022/04/30 13:05:13;;;;;;;10.57;5.07;;;14.00;99.90;;;;;;5055310;28;20342;-70
2022/04/30 13:07:41;;;;;;;7.72;4.78;;;14.00;99.90;;;;;;5055779;28;20041;-70
2022/04/30 13:15:37;;;;;;;8.73;4.82;;;14.20;99.90;;;;;;5055395;28;20052;-71
2022/04/30 13:18:06;;;;;;;8.15;5.10;;;13.90;99.90;;;;;;5055603;28;20044;-71
2022/04/30 13:20:32;;;;;;;10.27;6.88;;;13.80;99.90;;;;;;5055508;28;20128;-72
2022/04/30 13:22:57;;;;;;;9.70;5.43;;;13.70;99.90;;;;;;5055661;28;20373;-71
2022/04/30 13:25:24;;;;;;;9.55;5.80;;;13.80;99.90;;;;;;5055415;28;20045;-70
2022/04/30 13:27:50;;;;;;;9.25;5.50;;;14.00;99.90;;;;;;5056007;28;20036;-71
2022/04/30 13:30:18;;;;;;;12.38;5.57;;;14.30;99.90;;;;;;5055206;28;20095;-71